sensor_id;sensor_type;location;lat;lon;timestamp;P1;durP1;ratioP1;P2;durP2;ratioP2
12715;SDS011;6422;49.938;9.124;2023-02-15T00:01:04;15.10;;;5.97;;
12715;SDS011;6422;49.938;9.124;2023-02-15T00:03:30;9.00;;;5.43;;
12715;SDS011;6422;49.938;9.124;2023-02-15T00:05:56;14.05;;;6.53;;
12715;SDS011;6422;49.938;9.124;2023-02-15T00:08:21;13.10;;;6.43;;
12715;SDS011;6422;49.938;9.124;2023-02-15T00:10:47;12.57;;;5.50;;
12715;SDS011;6422;49.938;9.124;2023-02-15T00:13:12;10.40;;;4.83;;
12715;SDS011;6422;49.938;9.124;2023-02-15T00:15:37;10.43;;;5.38;;
12715;SDS011;6422;49.938;9.124;2023-02-15T00:18:03;17.23;;;6.97;;
12715;SDS011;6422;49.938;9.124;2023-02-15T00:20:28;16.57;;;5.17;;
12715;SDS011;6422;49.938;9.124;2023-02-15T00:22:53;15.45;;;7.00;;
12715;SDS011;6422;49.938;9.124;2023-02-15T00:25:18;9.10;;;5.65;;
12715;SDS011;6422;49.938;9.124;2023-02-15T00:27:43;14.57;;;7.83;;
12715;SDS011;6422;49.938;9.124;2023-02-15T00:30:08;11.88;;;5.10;;
12715;SDS011;6422;49.938;9.124;2023-02-15T00:32:34;16.20;;;6.20;;
12715;SDS011;6422;49.938;9.124;2023-02-15T00:34:59;20.53;;;6.93;;
12715;SDS011;6422;49.938;9.124;2023-02-15T00:37:24;10.77;;;6.28;;
12715;SDS011;6422;49.938;9.124;2023-02-15T00:39:49;16.73;;;8.15;;
12715;SDS011;6422;49.938;9.124;2023-02-15T00:42:14;18.13;;;6.28;;
12715;SDS011;6422;49.938;9.124;2023-02-15T00:44:39;12.40;;;6.82;;
12715;SDS011;6422;49.938;9.124;2023-02-15T00:47:05;10.55;;;5.60;;
12715;SDS011;6422;49.938;9.124;2023-02-15T00:49:30;16.70;;;8.13;;
12715;SDS011;6422;49.938;9.124;2023-02-15T00:51:55;14.70;;;7.63;;
12715;SDS011;6422;49.938;9.124;2023-02-15T00:54:20;17.13;;;7.30;;
12715;SDS011;6422;49.938;9.124;2023-02-15T00:56:46;10.80;;;4.90;;
12715;SDS011;6422;49.938;9.124;2023-02-15T00:59:11;17.10;;;6.63;;
12715;SDS011;6422;49.938;9.124;2023-02-15T01:01:36;15.10;;;6.63;;
12715;SDS011;6422;49.938;9.124;2023-02-15T01:04:01;12.80;;;7.30;;
12715;SDS011;6422;49.938;9.124;2023-02-15T01:06:26;17.60;;;6.63;;
12715;SDS011;6422;49.938;9.124;2023-02-15T01:08:52;15.33;;;6.97;;
12715;SDS011;6422;49.938;9.124;2023-02-15T01:11:18;16.45;;;6.20;;
12715;SDS011;6422;49.938;9.124;2023-02-15T01:13:47;11.00;;;6.03;;
12715;SDS011;6422;49.938;9.124;2023-02-15T01:16:12;8.97;;;5.30;;
12715;SDS011;6422;49.938;9.124;2023-02-15T01:18:37;11.75;;;5.53;;
12715;SDS011;6422;49.938;9.124;2023-02-15T01:21:10;12.13;;;6.03;;
12715;SDS011;6422;49.938;9.124;2023-02-15T01:23:35;14.00;;;6.23;;
12715;SDS011;6422;49.938;9.124;2023-02-15T01:26:02;12.50;;;6.53;;
12715;SDS011;6422;49.938;9.124;2023-02-15T01:28:27;13.43;;;6.40;;
12715;SDS011;6422;49.938;9.124;2023-02-15T01:30:52;13.23;;;5.85;;
12715;SDS011;6422;49.938;9.124;2023-02-15T01:33:17;12.38;;;6.57;;
12715;SDS011;6422;49.938;9.124;2023-02-15T01:35:43;11.52;;;5.93;;
12715;SDS011;6422;49.938;9.124;2023-02-15T01:38:08;16.63;;;7.93;;
12715;SDS011;6422;49.938;9.124;2023-02-15T01:40:33;11.30;;;6.90;;
12715;SDS011;6422;49.938;9.124;2023-02-15T01:42:58;15.75;;;5.88;;
12715;SDS011;6422;49.938;9.124;2023-02-15T01:45:25;15.48;;;6.38;;
12715;SDS011;6422;49.938;9.124;2023-02-15T01:47:52;14.93;;;5.63;;
12715;SDS011;6422;49.938;9.124;2023-02-15T01:53:39;12.80;;;5.20;;
12715;SDS011;6422;49.938;9.124;2023-02-15T01:55:50;14.23;;;5.27;;
12715;SDS011;6422;49.938;9.124;2023-02-15T01:58:16;13.37;;;6.77;;
12715;SDS011;6422;49.938;9.124;2023-02-15T02:00:42;13.13;;;6.23;;
12715;SDS011;6422;49.938;9.124;2023-02-15T02:03:08;11.07;;;5.63;;
12715;SDS011;6422;49.938;9.124;2023-02-15T02:05:33;11.10;;;4.33;;
12715;SDS011;6422;49.938;9.124;2023-02-15T02:07:59;17.37;;;6.43;;
12715;SDS011;6422;49.938;9.124;2023-02-15T02:10:25;11.47;;;4.30;;
12715;SDS011;6422;49.938;9.124;2023-02-15T02:12:55;11.37;;;6.50;;
12715;SDS011;6422;49.938;9.124;2023-02-15T02:15:23;9.03;;;4.83;;
12715;SDS011;6422;49.938;9.124;2023-02-15T02:17:58;8.27;;;5.53;;
12715;SDS011;6422;49.938;9.124;2023-02-15T02:20:43;7.23;;;4.23;;
12715;SDS011;6422;49.938;9.124;2023-02-15T02:26:16;10.33;;;5.67;;
12715;SDS011;6422;49.938;9.124;2023-02-15T02:34:03;8.80;;;5.17;;
12715;SDS011;6422;49.938;9.124;2023-02-15T02:46:33;10.60;;;4.63;;
12715;SDS011;6422;49.938;9.124;2023-02-15T02:49:00;10.30;;;4.57;;
12715;SDS011;6422;49.938;9.124;2023-02-15T02:51:25;13.23;;;5.90;;
12715;SDS011;6422;49.938;9.124;2023-02-15T02:53:51;17.00;;;4.95;;
12715;SDS011;6422;49.938;9.124;2023-02-15T02:56:59;9.87;;;4.50;;
12715;SDS011;6422;49.938;9.124;2023-02-15T02:59:19;13.20;;;5.60;;
12715;SDS011;6422;49.938;9.124;2023-02-15T03:02:05;13.83;;;5.40;;
12715;SDS011;6422;49.938;9.124;2023-02-15T03:04:35;11.60;;;5.37;;
12715;SDS011;6422;49.938;9.124;2023-02-15T03:07:03;10.80;;;5.20;;
12715;SDS011;6422;49.938;9.124;2023-02-15T03:09:31;9.90;;;5.00;;
12715;SDS011;6422;49.938;9.124;2023-02-15T03:12:07;11.00;;;5.43;;
12715;SDS011;6422;49.938;9.124;2023-02-15T03:14:33;11.17;;;5.70;;
12715;SDS011;6422;49.938;9.124;2023-02-15T03:16:58;11.37;;;5.33;;
12715;SDS011;6422;49.938;9.124;2023-02-15T03:19:28;10.33;;;4.73;;
12715;SDS011;6422;49.938;9.124;2023-02-15T03:21:56;14.83;;;5.73;;
12715;SDS011;6422;49.938;9.124;2023-02-15T03:24:38;11.80;;;5.20;;
12715;SDS011;6422;49.938;9.124;2023-02-15T03:27:06;14.93;;;5.73;;
12715;SDS011;6422;49.938;9.124;2023-02-15T03:29:32;15.80;;;6.00;;
12715;SDS011;6422;49.938;9.124;2023-02-15T03:31:59;13.23;;;4.93;;
12715;SDS011;6422;49.938;9.124;2023-02-15T03:34:26;14.50;;;7.00;;
12715;SDS011;6422;49.938;9.124;2023-02-15T03:39:20;16.60;;;6.80;;
12715;SDS011;6422;49.938;9.124;2023-02-15T03:41:48;15.03;;;5.97;;
12715;SDS011;6422;49.938;9.124;2023-02-15T03:44:16;12.23;;;5.57;;
12715;SDS011;6422;49.938;9.124;2023-02-15T03:46:48;12.17;;;5.80;;
12715;SDS011;6422;49.938;9.124;2023-02-15T03:49:21;11.77;;;5.80;;
12715;SDS011;6422;49.938;9.124;2023-02-15T03:51:48;19.40;;;6.77;;
12715;SDS011;6422;49.938;9.124;2023-02-15T03:57:02;14.90;;;5.30;;
12715;SDS011;6422;49.938;9.124;2023-02-15T03:59:46;16.83;;;6.83;;
12715;SDS011;6422;49.938;9.124;2023-02-15T04:02:33;17.63;;;5.73;;
12715;SDS011;6422;49.938;9.124;2023-02-15T04:05:00;13.93;;;6.53;;
12715;SDS011;6422;49.938;9.124;2023-02-15T04:07:25;17.33;;;6.55;;
12715;SDS011;6422;49.938;9.124;2023-02-15T04:09:51;10.07;;;4.90;;
12715;SDS011;6422;49.938;9.124;2023-02-15T04:12:34;10.57;;;5.43;;
12715;SDS011;6422;49.938;9.124;2023-02-15T04:14:59;12.90;;;5.30;;
12715;SDS011;6422;49.938;9.124;2023-02-15T04:17:43;9.30;;;4.77;;
12715;SDS011;6422;49.938;9.124;2023-02-15T04:20:08;12.77;;;5.10;;
12715;SDS011;6422;49.938;9.124;2023-02-15T04:22:52;13.53;;;5.10;;
12715;SDS011;6422;49.938;9.124;2023-02-15T04:25:36;11.50;;;5.40;;
12715;SDS011;6422;49.938;9.124;2023-02-15T04:28:01;15.13;;;6.37;;
12715;SDS011;6422;49.938;9.124;2023-02-15T04:30:26;13.68;;;6.40;;
12715;SDS011;6422;49.938;9.124;2023-02-15T04:32:52;13.50;;;4.90;;
12715;SDS011;6422;49.938;9.124;2023-02-15T04:35:18;10.97;;;5.40;;
12715;SDS011;6422;49.938;9.124;2023-02-15T04:37:43;9.50;;;5.30;;
12715;SDS011;6422;49.938;9.124;2023-02-15T04:40:10;11.70;;;5.20;;
12715;SDS011;6422;49.938;9.124;2023-02-15T04:42:35;12.50;;;5.00;;
12715;SDS011;6422;49.938;9.124;2023-02-15T04:45:01;13.80;;;5.87;;
12715;SDS011;6422;49.938;9.124;2023-02-15T04:47:26;10.63;;;4.40;;
12715;SDS011;6422;49.938;9.124;2023-02-15T04:49:51;9.60;;;4.63;;
12715;SDS011;6422;49.938;9.124;2023-02-15T04:52:16;9.07;;;4.77;;
12715;SDS011;6422;49.938;9.124;2023-02-15T04:54:44;9.47;;;6.20;;
12715;SDS011;6422;49.938;9.124;2023-02-15T04:57:10;8.10;;;4.67;;
12715;SDS011;6422;49.938;9.124;2023-02-15T04:59:35;5.67;;;4.07;;
12715;SDS011;6422;49.938;9.124;2023-02-15T05:02:00;11.40;;;5.07;;
12715;SDS011;6422;49.938;9.124;2023-02-15T05:04:25;7.17;;;3.67;;
12715;SDS011;6422;49.938;9.124;2023-02-15T05:06:50;15.57;;;5.43;;
12715;SDS011;6422;49.938;9.124;2023-02-15T05:09:16;11.15;;;4.93;;
12715;SDS011;6422;49.938;9.124;2023-02-15T05:11:41;8.90;;;4.37;;
12715;SDS011;6422;49.938;9.124;2023-02-15T05:14:06;11.50;;;4.70;;
12715;SDS011;6422;49.938;9.124;2023-02-15T05:16:31;9.53;;;4.67;;
12715;SDS011;6422;49.938;9.124;2023-02-15T05:18:56;5.85;;;4.10;;
12715;SDS011;6422;49.938;9.124;2023-02-15T05:21:21;14.50;;;6.67;;
12715;SDS011;6422;49.938;9.124;2023-02-15T05:23:47;9.60;;;5.57;;
12715;SDS011;6422;49.938;9.124;2023-02-15T05:26:12;14.90;;;5.53;;
12715;SDS011;6422;49.938;9.124;2023-02-15T05:28:59;11.03;;;4.23;;
12715;SDS011;6422;49.938;9.124;2023-02-15T05:31:24;12.38;;;5.00;;
12715;SDS011;6422;49.938;9.124;2023-02-15T05:33:49;11.83;;;5.50;;
12715;SDS011;6422;49.938;9.124;2023-02-15T05:36:14;8.77;;;5.25;;
12715;SDS011;6422;49.938;9.124;2023-02-15T05:38:39;12.70;;;4.17;;
12715;SDS011;6422;49.938;9.124;2023-02-15T05:41:05;11.53;;;5.27;;
12715;SDS011;6422;49.938;9.124;2023-02-15T05:43:30;9.20;;;5.83;;
12715;SDS011;6422;49.938;9.124;2023-02-15T05:45:56;13.10;;;4.67;;
12715;SDS011;6422;49.938;9.124;2023-02-15T05:48:21;11.07;;;6.13;;
12715;SDS011;6422;49.938;9.124;2023-02-15T05:50:56;9.70;;;5.30;;
12715;SDS011;6422;49.938;9.124;2023-02-15T05:53:21;13.90;;;6.80;;
12715;SDS011;6422;49.938;9.124;2023-02-15T05:55:46;9.27;;;4.30;;
12715;SDS011;6422;49.938;9.124;2023-02-15T05:58:11;10.20;;;5.65;;
12715;SDS011;6422;49.938;9.124;2023-02-15T06:00:36;11.88;;;5.13;;
12715;SDS011;6422;49.938;9.124;2023-02-15T06:03:01;22.92;;;8.07;;
12715;SDS011;6422;49.938;9.124;2023-02-15T06:05:27;13.47;;;6.50;;
12715;SDS011;6422;49.938;9.124;2023-02-15T06:07:52;13.83;;;6.30;;
12715;SDS011;6422;49.938;9.124;2023-02-15T06:10:17;12.10;;;6.13;;
12715;SDS011;6422;49.938;9.124;2023-02-15T06:12:43;12.90;;;5.80;;
12715;SDS011;6422;49.938;9.124;2023-02-15T06:15:09;9.87;;;5.70;;
12715;SDS011;6422;49.938;9.124;2023-02-15T06:17:34;14.30;;;6.40;;
12715;SDS011;6422;49.938;9.124;2023-02-15T06:19:59;9.57;;;5.27;;
12715;SDS011;6422;49.938;9.124;2023-02-15T06:22:24;12.63;;;5.63;;
12715;SDS011;6422;49.938;9.124;2023-02-15T06:24:49;12.32;;;6.72;;
12715;SDS011;6422;49.938;9.124;2023-02-15T06:27:14;15.00;;;6.53;;
12715;SDS011;6422;49.938;9.124;2023-02-15T06:29:40;17.27;;;6.23;;
12715;SDS011;6422;49.938;9.124;2023-02-15T06:32:05;17.23;;;5.07;;
12715;SDS011;6422;49.938;9.124;2023-02-15T06:34:31;7.90;;;4.73;;
12715;SDS011;6422;49.938;9.124;2023-02-15T06:36:56;9.40;;;3.83;;
12715;SDS011;6422;49.938;9.124;2023-02-15T06:39:22;14.70;;;6.30;;
12715;SDS011;6422;49.938;9.124;2023-02-15T06:41:47;12.67;;;4.60;;
12715;SDS011;6422;49.938;9.124;2023-02-15T06:44:12;11.97;;;5.30;;
12715;SDS011;6422;49.938;9.124;2023-02-15T06:46:37;9.55;;;4.20;;
12715;SDS011;6422;49.938;9.124;2023-02-15T06:49:02;16.63;;;4.73;;
12715;SDS011;6422;49.938;9.124;2023-02-15T06:51:27;13.57;;;6.20;;
12715;SDS011;6422;49.938;9.124;2023-02-15T06:53:53;8.93;;;4.90;;
12715;SDS011;6422;49.938;9.124;2023-02-15T06:56:18;13.68;;;4.70;;
12715;SDS011;6422;49.938;9.124;2023-02-15T06:58:43;9.43;;;5.10;;
12715;SDS011;6422;49.938;9.124;2023-02-15T07:01:10;8.30;;;4.20;;
12715;SDS011;6422;49.938;9.124;2023-02-15T07:03:36;9.30;;;4.40;;
12715;SDS011;6422;49.938;9.124;2023-02-15T07:06:02;13.60;;;6.43;;
12715;SDS011;6422;49.938;9.124;2023-02-15T07:08:28;11.87;;;5.40;;
12715;SDS011;6422;49.938;9.124;2023-02-15T07:10:53;11.13;;;6.40;;
12715;SDS011;6422;49.938;9.124;2023-02-15T07:13:19;13.43;;;5.97;;
12715;SDS011;6422;49.938;9.124;2023-02-15T07:15:45;11.30;;;5.90;;
12715;SDS011;6422;49.938;9.124;2023-02-15T07:18:10;14.20;;;6.20;;
12715;SDS011;6422;49.938;9.124;2023-02-15T07:20:36;11.00;;;5.77;;
12715;SDS011;6422;49.938;9.124;2023-02-15T07:23:01;10.83;;;5.80;;
12715;SDS011;6422;49.938;9.124;2023-02-15T07:25:27;11.70;;;4.97;;
12715;SDS011;6422;49.938;9.124;2023-02-15T07:27:58;11.50;;;5.07;;
12715;SDS011;6422;49.938;9.124;2023-02-15T07:30:23;11.10;;;5.60;;
12715;SDS011;6422;49.938;9.124;2023-02-15T07:32:49;14.77;;;5.93;;
12715;SDS011;6422;49.938;9.124;2023-02-15T07:35:33;17.93;;;5.70;;
12715;SDS011;6422;49.938;9.124;2023-02-15T07:37:58;11.63;;;5.13;;
12715;SDS011;6422;49.938;9.124;2023-02-15T07:40:23;10.80;;;5.30;;
12715;SDS011;6422;49.938;9.124;2023-02-15T07:42:48;14.47;;;6.27;;
12715;SDS011;6422;49.938;9.124;2023-02-15T07:45:14;8.97;;;5.23;;
12715;SDS011;6422;49.938;9.124;2023-02-15T07:47:39;10.63;;;5.20;;
12715;SDS011;6422;49.938;9.124;2023-02-15T07:50:04;15.10;;;6.00;;
12715;SDS011;6422;49.938;9.124;2023-02-15T07:52:29;8.73;;;5.17;;
12715;SDS011;6422;49.938;9.124;2023-02-15T07:54:55;17.43;;;6.70;;
12715;SDS011;6422;49.938;9.124;2023-02-15T07:57:20;23.10;;;6.40;;
12715;SDS011;6422;49.938;9.124;2023-02-15T07:59:45;16.67;;;5.80;;
12715;SDS011;6422;49.938;9.124;2023-02-15T08:02:10;18.92;;;5.90;;
12715;SDS011;6422;49.938;9.124;2023-02-15T08:04:35;10.37;;;5.97;;
12715;SDS011;6422;49.938;9.124;2023-02-15T08:07:00;13.48;;;5.30;;
12715;SDS011;6422;49.938;9.124;2023-02-15T08:09:26;14.98;;;5.40;;
12715;SDS011;6422;49.938;9.124;2023-02-15T08:11:51;11.43;;;5.33;;
12715;SDS011;6422;49.938;9.124;2023-02-15T08:14:20;11.57;;;6.03;;
12715;SDS011;6422;49.938;9.124;2023-02-15T08:19:13;15.52;;;5.35;;
12715;SDS011;6422;49.938;9.124;2023-02-15T08:21:39;10.17;;;5.20;;
12715;SDS011;6422;49.938;9.124;2023-02-15T08:24:05;12.40;;;6.40;;
12715;SDS011;6422;49.938;9.124;2023-02-15T08:26:30;16.03;;;5.40;;
12715;SDS011;6422;49.938;9.124;2023-02-15T08:28:56;14.23;;;6.50;;
12715;SDS011;6422;49.938;9.124;2023-02-15T08:31:22;14.73;;;5.43;;
12715;SDS011;6422;49.938;9.124;2023-02-15T08:33:48;9.43;;;5.67;;
12715;SDS011;6422;49.938;9.124;2023-02-15T08:36:15;16.60;;;7.07;;
12715;SDS011;6422;49.938;9.124;2023-02-15T08:38:41;10.47;;;5.63;;
12715;SDS011;6422;49.938;9.124;2023-02-15T08:43:44;13.43;;;6.93;;
12715;SDS011;6422;49.938;9.124;2023-02-15T08:46:10;12.07;;;5.03;;
12715;SDS011;6422;49.938;9.124;2023-02-15T08:48:35;19.30;;;6.17;;
12715;SDS011;6422;49.938;9.124;2023-02-15T08:51:04;10.50;;;5.10;;
12715;SDS011;6422;49.938;9.124;2023-02-15T08:53:29;27.87;;;6.17;;
12715;SDS011;6422;49.938;9.124;2023-02-15T08:55:57;9.70;;;5.57;;
12715;SDS011;6422;49.938;9.124;2023-02-15T08:58:23;14.70;;;6.47;;
12715;SDS011;6422;49.938;9.124;2023-02-15T09:00:48;16.40;;;6.33;;
12715;SDS011;6422;49.938;9.124;2023-02-15T09:03:14;14.37;;;7.20;;
12715;SDS011;6422;49.938;9.124;2023-02-15T09:05:39;13.83;;;5.10;;
12715;SDS011;6422;49.938;9.124;2023-02-15T09:08:04;13.85;;;5.25;;
12715;SDS011;6422;49.938;9.124;2023-02-15T09:10:29;14.52;;;5.78;;
12715;SDS011;6422;49.938;9.124;2023-02-15T09:12:54;11.33;;;4.03;;
12715;SDS011;6422;49.938;9.124;2023-02-15T09:15:19;9.43;;;5.18;;
12715;SDS011;6422;49.938;9.124;2023-02-15T09:17:45;13.70;;;4.28;;
12715;SDS011;6422;49.938;9.124;2023-02-15T09:20:10;11.53;;;5.10;;
12715;SDS011;6422;49.938;9.124;2023-02-15T09:22:35;10.83;;;4.30;;
12715;SDS011;6422;49.938;9.124;2023-02-15T09:25:00;7.00;;;4.40;;
12715;SDS011;6422;49.938;9.124;2023-02-15T09:27:25;9.32;;;4.50;;
12715;SDS011;6422;49.938;9.124;2023-02-15T09:29:50;8.83;;;4.20;;
12715;SDS011;6422;49.938;9.124;2023-02-15T09:32:15;8.93;;;4.50;;
12715;SDS011;6422;49.938;9.124;2023-02-15T09:34:42;8.30;;;3.83;;
12715;SDS011;6422;49.938;9.124;2023-02-15T09:37:07;9.70;;;5.22;;
12715;SDS011;6422;49.938;9.124;2023-02-15T09:39:32;12.70;;;5.83;;
12715;SDS011;6422;49.938;9.124;2023-02-15T09:42:13;9.70;;;5.47;;
12715;SDS011;6422;49.938;9.124;2023-02-15T09:55:01;8.47;;;3.93;;
12715;SDS011;6422;49.938;9.124;2023-02-15T09:57:37;4.40;;;3.20;;
12715;SDS011;6422;49.938;9.124;2023-02-15T10:00:18;10.40;;;5.33;;
12715;SDS011;6422;49.938;9.124;2023-02-15T10:03:09;9.40;;;6.03;;
12715;SDS011;6422;49.938;9.124;2023-02-15T10:13:29;9.83;;;4.50;;
12715;SDS011;6422;49.938;9.124;2023-02-15T10:16:08;7.50;;;3.93;;
12715;SDS011;6422;49.938;9.124;2023-02-15T10:18:52;10.33;;;4.83;;
12715;SDS011;6422;49.938;9.124;2023-02-15T10:21:27;13.03;;;5.43;;
12715;SDS011;6422;49.938;9.124;2023-02-15T10:31:13;11.88;;;3.70;;
12715;SDS011;6422;49.938;9.124;2023-02-15T10:33:41;11.80;;;5.00;;
12715;SDS011;6422;49.938;9.124;2023-02-15T10:44:05;7.87;;;4.70;;
12715;SDS011;6422;49.938;9.124;2023-02-15T10:46:42;10.97;;;5.33;;
12715;SDS011;6422;49.938;9.124;2023-02-15T10:49:15;8.80;;;4.03;;
12715;SDS011;6422;49.938;9.124;2023-02-15T10:54:32;6.70;;;3.83;;
12715;SDS011;6422;49.938;9.124;2023-02-15T10:57:16;5.13;;;3.30;;
12715;SDS011;6422;49.938;9.124;2023-02-15T11:09:52;7.65;;;3.85;;
12715;SDS011;6422;49.938;9.124;2023-02-15T11:12:22;8.20;;;4.50;;
12715;SDS011;6422;49.938;9.124;2023-02-15T11:14:50;7.70;;;3.80;;
12715;SDS011;6422;49.938;9.124;2023-02-15T11:17:23;7.37;;;3.77;;
12715;SDS011;6422;49.938;9.124;2023-02-15T11:22:18;10.30;;;4.23;;
12715;SDS011;6422;49.938;9.124;2023-02-15T11:24:43;6.57;;;3.67;;
12715;SDS011;6422;49.938;9.124;2023-02-15T11:27:16;6.40;;;3.70;;
12715;SDS011;6422;49.938;9.124;2023-02-15T11:29:48;6.63;;;4.03;;
12715;SDS011;6422;49.938;9.124;2023-02-15T11:32:23;10.60;;;5.17;;
12715;SDS011;6422;49.938;9.124;2023-02-15T11:34:51;5.07;;;3.93;;
12715;SDS011;6422;49.938;9.124;2023-02-15T11:37:19;5.83;;;3.60;;
12715;SDS011;6422;49.938;9.124;2023-02-15T11:39:45;9.23;;;4.87;;
12715;SDS011;6422;49.938;9.124;2023-02-15T11:42:17;6.70;;;3.33;;
12715;SDS011;6422;49.938;9.124;2023-02-15T11:44:59;9.93;;;4.00;;
12715;SDS011;6422;49.938;9.124;2023-02-15T11:47:27;12.63;;;4.80;;
12715;SDS011;6422;49.938;9.124;2023-02-15T11:49:52;6.70;;;3.47;;
12715;SDS011;6422;49.938;9.124;2023-02-15T11:52:18;9.10;;;2.83;;
12715;SDS011;6422;49.938;9.124;2023-02-15T11:54:44;7.13;;;3.57;;
12715;SDS011;6422;49.938;9.124;2023-02-15T11:57:12;4.67;;;2.87;;
12715;SDS011;6422;49.938;9.124;2023-02-15T11:59:40;8.70;;;3.33;;
12715;SDS011;6422;49.938;9.124;2023-02-15T12:02:18;6.93;;;3.23;;
12715;SDS011;6422;49.938;9.124;2023-02-15T12:04:46;8.67;;;4.00;;
12715;SDS011;6422;49.938;9.124;2023-02-15T12:12:23;7.97;;;3.87;;
12715;SDS011;6422;49.938;9.124;2023-02-15T12:14:49;7.83;;;4.20;;
12715;SDS011;6422;49.938;9.124;2023-02-15T12:17:14;8.43;;;4.17;;
12715;SDS011;6422;49.938;9.124;2023-02-15T12:19:40;7.93;;;3.97;;
12715;SDS011;6422;49.938;9.124;2023-02-15T12:22:11;6.80;;;3.90;;
12715;SDS011;6422;49.938;9.124;2023-02-15T12:24:46;10.60;;;4.47;;
12715;SDS011;6422;49.938;9.124;2023-02-15T12:27:16;7.33;;;3.80;;
12715;SDS011;6422;49.938;9.124;2023-02-15T12:29:43;11.33;;;5.03;;
12715;SDS011;6422;49.938;9.124;2023-02-15T12:32:25;8.90;;;4.07;;
12715;SDS011;6422;49.938;9.124;2023-02-15T12:34:51;9.65;;;4.90;;
12715;SDS011;6422;49.938;9.124;2023-02-15T12:37:21;5.30;;;3.07;;
12715;SDS011;6422;49.938;9.124;2023-02-15T12:42:19;6.83;;;3.43;;
12715;SDS011;6422;49.938;9.124;2023-02-15T12:45:00;11.53;;;4.30;;
12715;SDS011;6422;49.938;9.124;2023-02-15T12:47:26;4.93;;;3.13;;
12715;SDS011;6422;49.938;9.124;2023-02-15T12:52:30;6.03;;;3.60;;
12715;SDS011;6422;49.938;9.124;2023-02-15T12:54:55;8.87;;;3.70;;
12715;SDS011;6422;49.938;9.124;2023-02-15T12:57:34;6.80;;;3.50;;
12715;SDS011;6422;49.938;9.124;2023-02-15T13:00:00;6.97;;;3.60;;
12715;SDS011;6422;49.938;9.124;2023-02-15T13:02:43;6.90;;;3.70;;
12715;SDS011;6422;49.938;9.124;2023-02-15T13:07:34;6.10;;;3.17;;
12715;SDS011;6422;49.938;9.124;2023-02-15T13:09:59;5.43;;;3.00;;
12715;SDS011;6422;49.938;9.124;2023-02-15T13:12:25;6.10;;;3.83;;
12715;SDS011;6422;49.938;9.124;2023-02-15T13:14:55;8.30;;;3.87;;
12715;SDS011;6422;49.938;9.124;2023-02-15T13:17:28;9.43;;;3.93;;
12715;SDS011;6422;49.938;9.124;2023-02-15T13:19:54;4.93;;;3.37;;
12715;SDS011;6422;49.938;9.124;2023-02-15T13:22:25;7.77;;;3.53;;
12715;SDS011;6422;49.938;9.124;2023-02-15T13:24:53;8.93;;;4.50;;
12715;SDS011;6422;49.938;9.124;2023-02-15T13:27:20;5.07;;;3.40;;
12715;SDS011;6422;49.938;9.124;2023-02-15T13:29:49;5.83;;;3.37;;
12715;SDS011;6422;49.938;9.124;2023-02-15T13:32:24;6.60;;;4.03;;
12715;SDS011;6422;49.938;9.124;2023-02-15T13:34:50;7.40;;;4.18;;
12715;SDS011;6422;49.938;9.124;2023-02-15T13:37:19;6.60;;;3.57;;
12715;SDS011;6422;49.938;9.124;2023-02-15T13:39:52;11.43;;;3.07;;
12715;SDS011;6422;49.938;9.124;2023-02-15T13:42:22;6.17;;;2.90;;
12715;SDS011;6422;49.938;9.124;2023-02-15T13:55:47;8.03;;;3.60;;
12715;SDS011;6422;49.938;9.124;2023-02-15T14:01:17;6.93;;;3.70;;
12715;SDS011;6422;49.938;9.124;2023-02-15T14:06:26;7.53;;;3.60;;
12715;SDS011;6422;49.938;9.124;2023-02-15T14:11:26;8.90;;;3.67;;
12715;SDS011;6422;49.938;9.124;2023-02-15T14:16:39;6.40;;;3.70;;
12715;SDS011;6422;49.938;9.124;2023-02-15T14:19:13;5.40;;;3.73;;
12715;SDS011;6422;49.938;9.124;2023-02-15T14:26:52;6.10;;;3.40;;
12715;SDS011;6422;49.938;9.124;2023-02-15T14:31:50;5.20;;;2.83;;
12715;SDS011;6422;49.938;9.124;2023-02-15T14:36:42;5.03;;;3.15;;
12715;SDS011;6422;49.938;9.124;2023-02-15T14:42:18;6.57;;;4.30;;
12715;SDS011;6422;49.938;9.124;2023-02-15T14:44:52;6.30;;;3.83;;
12715;SDS011;6422;49.938;9.124;2023-02-15T14:47:22;10.17;;;3.10;;
12715;SDS011;6422;49.938;9.124;2023-02-15T14:49:50;8.83;;;3.53;;
12715;SDS011;6422;49.938;9.124;2023-02-15T14:52:15;7.97;;;4.73;;
12715;SDS011;6422;49.938;9.124;2023-02-15T14:59:45;5.47;;;3.50;;
12715;SDS011;6422;49.938;9.124;2023-02-15T15:02:17;8.10;;;3.70;;
12715;SDS011;6422;49.938;9.124;2023-02-15T15:04:46;5.80;;;3.30;;
12715;SDS011;6422;49.938;9.124;2023-02-15T15:07:26;11.73;;;3.00;;
12715;SDS011;6422;49.938;9.124;2023-02-15T15:09:59;18.77;;;4.03;;
12715;SDS011;6422;49.938;9.124;2023-02-15T15:14:50;6.80;;;3.78;;
12715;SDS011;6422;49.938;9.124;2023-02-15T15:22:22;8.32;;;3.28;;
12715;SDS011;6422;49.938;9.124;2023-02-15T15:24:49;6.33;;;3.70;;
12715;SDS011;6422;49.938;9.124;2023-02-15T15:29:59;5.40;;;3.03;;
12715;SDS011;6422;49.938;9.124;2023-02-15T15:32:26;5.40;;;3.50;;
12715;SDS011;6422;49.938;9.124;2023-02-15T15:35:04;6.87;;;4.47;;
12715;SDS011;6422;49.938;9.124;2023-02-15T15:37:39;12.17;;;4.70;;
12715;SDS011;6422;49.938;9.124;2023-02-15T15:42:35;7.53;;;3.97;;
12715;SDS011;6422;49.938;9.124;2023-02-15T15:48:07;8.47;;;4.13;;
12715;SDS011;6422;49.938;9.124;2023-02-15T15:50:34;4.83;;;2.87;;
12715;SDS011;6422;49.938;9.124;2023-02-15T15:53:03;18.53;;;5.77;;
12715;SDS011;6422;49.938;9.124;2023-02-15T15:55:30;5.80;;;3.30;;
12715;SDS011;6422;49.938;9.124;2023-02-15T15:57:58;8.50;;;4.20;;
12715;SDS011;6422;49.938;9.124;2023-02-15T16:02:53;6.17;;;3.80;;
12715;SDS011;6422;49.938;9.124;2023-02-15T16:05:18;6.50;;;3.43;;
12715;SDS011;6422;49.938;9.124;2023-02-15T16:07:44;7.73;;;4.40;;
12715;SDS011;6422;49.938;9.124;2023-02-15T16:10:19;9.50;;;4.60;;
12715;SDS011;6422;49.938;9.124;2023-02-15T16:12:45;5.20;;;2.90;;
12715;SDS011;6422;49.938;9.124;2023-02-15T16:15:13;9.67;;;4.27;;
12715;SDS011;6422;49.938;9.124;2023-02-15T16:17:38;7.17;;;3.47;;
12715;SDS011;6422;49.938;9.124;2023-02-15T16:20:27;8.37;;;4.33;;
12715;SDS011;6422;49.938;9.124;2023-02-15T16:28:07;8.63;;;4.30;;
12715;SDS011;6422;49.938;9.124;2023-02-15T16:30:33;12.40;;;4.30;;
12715;SDS011;6422;49.938;9.124;2023-02-15T16:33:06;11.17;;;5.23;;
12715;SDS011;6422;49.938;9.124;2023-02-15T16:35:32;7.27;;;4.23;;
12715;SDS011;6422;49.938;9.124;2023-02-15T16:37:57;6.70;;;3.37;;
12715;SDS011;6422;49.938;9.124;2023-02-15T16:42:48;8.43;;;4.55;;
12715;SDS011;6422;49.938;9.124;2023-02-15T16:45:14;14.90;;;5.40;;
12715;SDS011;6422;49.938;9.124;2023-02-15T16:47:41;11.83;;;4.83;;
12715;SDS011;6422;49.938;9.124;2023-02-15T16:50:10;8.97;;;4.97;;
12715;SDS011;6422;49.938;9.124;2023-02-15T16:52:41;9.00;;;4.97;;
12715;SDS011;6422;49.938;9.124;2023-02-15T16:55:18;10.70;;;5.23;;
12715;SDS011;6422;49.938;9.124;2023-02-15T16:57:43;8.60;;;5.27;;
12715;SDS011;6422;49.938;9.124;2023-02-15T17:00:19;8.87;;;4.73;;
12715;SDS011;6422;49.938;9.124;2023-02-15T17:05:20;24.33;;;4.00;;
12715;SDS011;6422;49.938;9.124;2023-02-15T17:08:03;9.43;;;4.80;;
12715;SDS011;6422;49.938;9.124;2023-02-15T17:10:37;9.67;;;5.20;;
12715;SDS011;6422;49.938;9.124;2023-02-15T17:13:09;12.40;;;5.70;;
12715;SDS011;6422;49.938;9.124;2023-02-15T17:15:35;14.83;;;5.90;;
12715;SDS011;6422;49.938;9.124;2023-02-15T17:18:11;10.87;;;4.80;;
12715;SDS011;6422;49.938;9.124;2023-02-15T17:20:37;10.53;;;4.93;;
12715;SDS011;6422;49.938;9.124;2023-02-15T17:23:03;8.03;;;4.00;;
12715;SDS011;6422;49.938;9.124;2023-02-15T17:25:34;10.70;;;4.27;;
12715;SDS011;6422;49.938;9.124;2023-02-15T17:28:00;12.97;;;6.93;;
12715;SDS011;6422;49.938;9.124;2023-02-15T17:30:32;8.80;;;4.70;;
12715;SDS011;6422;49.938;9.124;2023-02-15T17:32:59;11.93;;;6.73;;
12715;SDS011;6422;49.938;9.124;2023-02-15T17:35:28;10.90;;;4.03;;
12715;SDS011;6422;49.938;9.124;2023-02-15T17:38:13;10.07;;;4.47;;
12715;SDS011;6422;49.938;9.124;2023-02-15T17:40:39;12.40;;;5.27;;